Naniwa Maru No.7 — JD2456 — position and weather

sailwx.info

Track history (hours):
 
Tides and Currents Weather Stations Pressure Air Temp Water Temp Dewpoint Dewpoint Depression Visibility Wind Speed Wind Dir Waves Ship Positions

Naniwa Maru No.7

Last reported at 2018-May-23 08:15 UTC. Time now 2018-May-25 14:26 UTC.
Position N 34°50' E 139°49'.

Length 105 m; draft 5.5 m.

Type: Tanker. MMSI: 431000301.

Date/timePositionNaut miles runAvg speedWind from/ knotsBaromVisibWave heightAir tempDewpointWater temp
2018-May-23 08:15N 34°50' E 139°49'415.5
2018-May-23 08:00N 34°53' E 139°46'815.5
2018-May-23 07:30N 35°00' E 139°43'815.2
2018-May-23 07:00N 35°08' E 139°45'714.4
2018-May-23 06:30N 35°15' E 139°46'612.8
2018-May-23 06:00N 35°20' E 139°42'5 8.5
2018-May-23 05:28N 35°24' E 139°40'0 0.0
2018-May-23 04:58N 35°24' E 139°40'0 0.0
2018-May-23 04:28N 35°24' E 139°40'0 0.0
2018-May-23 03:58N 35°24' E 139°40'0 0.0
2018-May-23 03:28N 35°24' E 139°40'0 0.0
2018-May-23 02:52N 35°24' E 139°40'0 0.0
2018-May-23 02:28N 35°24' E 139°40'0 0.0
2018-May-23 01:58N 35°24' E 139°40'0 0.0
2018-May-23 01:28N 35°24' E 139°40'0 0.0
2018-May-23 00:58N 35°24' E 139°40'1 2.0
2018-May-23 00:30N 35°24' E 139°40'4 7.4
2018-May-23 00:01N 35°24' E 139°45'0 0.3
2018-May-22 23:28N 35°24' E 139°45'0 0.0
2018-May-22 22:59N 35°24' E 139°45'0 0.0
2018-May-22 22:25N 35°24' E 139°45'0 0.0
2018-May-22 21:55N 35°24' E 139°45'0 0.1
2018-May-22 21:28N 35°24' E 139°45'0 0.0
2018-May-22 20:59N 35°24' E 139°45'0 0.0
2018-May-22 20:28N 35°24' E 139°45'0 0.0
2018-May-22 19:58N 35°24' E 139°45'0 0.0
2018-May-22 19:29N 35°24' E 139°45'0 0.0
2018-May-22 18:58N 35°24' E 139°45'0 0.0
2018-May-22 18:29N 35°24' E 139°45'0 0.0
2018-May-22 17:59N 35°24' E 139°45'0 0.0
2018-May-22 17:28N 35°24' E 139°45'0 0.0
2018-May-22 16:59N 35°24' E 139°45'0 0.0
2018-May-22 16:28N 35°24' E 139°45'0 0.0
2018-May-22 15:58N 35°24' E 139°45'0 0.1
2018-May-22 15:25N 35°24' E 139°45'0 0.0
2018-May-22 14:58N 35°24' E 139°45'0 0.1
2018-May-22 14:28N 35°24' E 139°45'0 0.0
2018-May-22 13:58N 35°24' E 139°45'0 0.0
2018-May-22 13:28N 35°24' E 139°45'0 0.0
2018-May-22 12:58N 35°24' E 139°45'0 0.0
2018-May-22 12:29N 35°24' E 139°45'0 0.0
2018-May-22 11:58N 35°24' E 139°45'0 0.0
2018-May-22 11:28N 35°24' E 139°45'0 0.0
2018-May-22 10:52N 35°24' E 139°45'0 0.0
2018-May-22 10:28N 35°24' E 139°45'0 0.0
2018-May-22 09:58N 35°24' E 139°45'0 0.0
2018-May-22 09:28N 35°24' E 139°45'0 0.4
2018-May-22 09:00N 35°24' E 139°45'714.1
2018-May-22 08:30N 35°29' E 139°51'713.7
2018-May-22 08:00N 35°32' E 139°59'3 0.4
2018-May-21 23:50N 35°32' E 140°03'2 7.4
2018-May-21 23:30N 35°32' E 140°00'5 9.7
2018-May-21 23:00N 35°30' E 139°55'0 0.0
2018-May-21 19:13N 35°30' E 139°55'0 0.0
2018-May-21 18:52N 35°30' E 139°55'0 0.1
2018-May-21 18:13N 35°30' E 139°55'0 0.0
2018-May-21 17:55N 35°30' E 139°55'0 0.0
2018-May-21 16:28N 35°30' E 139°55'0 0.0
2018-May-21 15:58N 35°30' E 139°55'0 0.1
2018-May-21 15:28N 35°30' E 139°55'0 0.0
2018-May-21 14:58N 35°30' E 139°55'0 0.0
2018-May-21 14:28N 35°30' E 139°55'0 0.5
2018-May-21 14:00N 35°30' E 139°55'713.1
2018-May-21 13:31N 35°26' E 139°48'612.5
2018-May-21 13:00N 35°20' E 139°45'611.6
2018-May-21 12:30N 35°15' E 139°47'713.3
2018-May-21 12:00N 35°08' E 139°45'713.5
2018-May-21 11:30N 35°02' E 139°41'815.5
2018-May-21 11:00N 34°57' E 139°34'23312.2
2018-May-20 15:51N 33°48' E 135°04'513.7
2018-May-20 15:31N 33°51' E 135°00'713.1
2018-May-20 15:01N 33°57' E 134°58'713.4
2018-May-20 14:30N 34°04' E 134°58'713.6
2018-May-20 14:00N 34°11' E 134°58'612.6
2018-May-20 13:30N 34°17' E 134°58'612.3
2018-May-20 13:00N 34°23' E 135°01'713.1
2018-May-20 12:30N 34°27' E 135°07'713.9
2018-May-20 12:00N 34°32' E 135°14'713.4
2018-May-20 11:30N 34°36' E 135°20'4 8.8
2018-May-20 11:00N 34°35' E 135°26'0 0.1
2018-May-20 10:29N 34°35' E 135°26'0 0.0
2018-May-20 10:00N 34°35' E 135°26'0 0.0
2018-May-20 09:30N 34°35' E 135°26'0 0.0
2018-May-20 09:00N 34°35' E 135°26'0 0.0
2018-May-20 08:30N 34°35' E 135°26'0 0.0
2018-May-20 07:57N 34°35' E 135°26'0 0.0
2018-May-20 07:09N 34°35' E 135°26'0 0.0
2018-May-20 06:51N 34°35' E 135°26'0 0.0
2018-May-20 06:27N 34°35' E 135°26'0 0.0
2018-May-20 05:03N 34°35' E 135°26'0 0.0
2018-May-20 04:57N 34°35' E 135°26'0 0.0
2018-May-20 04:27N 34°35' E 135°26'0 0.2
2018-May-20 03:39N 34°35' E 135°26'0 2.0
2018-May-20 03:29N 34°35' E 135°25'4 7.5
2018-May-20 03:00N 34°36' E 135°21'3 5.2
2018-May-20 02:28N 34°35' E 135°18'0 0.0
2018-May-20 01:58N 34°35' E 135°18'0 0.0
2018-May-20 01:16N 34°35' E 135°18'0 0.2
2018-May-20 00:58N 34°35' E 135°18'0 0.0
2018-May-20 00:31N 34°35' E 135°18'0 0.0
2018-May-19 23:55N 34°35' E 135°18'0 0.0
2018-May-19 23:27N 34°35' E 135°18'0 0.0
2018-May-19 23:01N 34°35' E 135°18'0 0.0
2018-May-19 22:31N 34°35' E 135°18'0 0.1
2018-May-19 22:00N 34°35' E 135°18'0 0.0
2018-May-19 21:28N 34°35' E 135°18'0 0.0
2018-May-19 20:58N 34°35' E 135°18'0 0.0
2018-May-19 20:30N 34°35' E 135°18'0 0.0
2018-May-19 19:55N 34°35' E 135°18'0 0.0
2018-May-19 19:25N 34°35' E 135°18'0 0.0
2018-May-19 19:01N 34°35' E 135°18'0 0.0
2018-May-19 18:28N 34°35' E 135°18'0 0.0
2018-May-19 18:01N 34°35' E 135°18'0 0.0
2018-May-19 17:25N 34°35' E 135°18'0 0.0
2018-May-19 16:55N 34°35' E 135°18'2 5.0
2018-May-19 16:30N 34°35' E 135°15'714.3
2018-May-19 16:00N 34°35' E 135°07'612.0
2018-May-19 15:31N 34°37' E 135°00'713.4
2018-May-19 15:00N 34°34' E 134°53'612.4
2018-May-19 14:30N 34°32' E 134°45'713.5
2018-May-19 14:00N 34°29' E 134°38'714.3
2018-May-19 13:31N 34°27' E 134°30'714.5
2018-May-19 13:00N 34°24' E 134°22'6 0.3
2018-May-18 17:35N 34°24' E 134°14'112.7
2018-May-18 17:28N 34°24' E 134°16'613.4
2018-May-18 16:59N 34°26' E 134°24'713.6
2018-May-18 16:30N 34°28' E 134°31'714.2
2018-May-18 16:00N 34°31' E 134°39'815.4
2018-May-18 15:31N 34°34' E 134°48'816.7
2018-May-18 15:00N 34°37' E 134°57'815.3
2018-May-18 14:30N 34°36' E 135°06'714.0
2018-May-18 14:00N 34°36' E 135°15'714.0
2018-May-18 13:30N 34°36' E 135°23'3 3.0
2018-May-18 12:35N 34°34' E 135°26'0 0.0
2018-May-18 12:27N 34°34' E 135°26'0 0.0
2018-May-18 12:00N 34°34' E 135°26'0 0.0
2018-May-18 11:29N 34°34' E 135°26'0 0.0
2018-May-18 10:59N 34°34' E 135°26'0 0.0
2018-May-18 10:27N 34°34' E 135°26'0 0.0
2018-May-18 09:58N 34°34' E 135°26'0 0.0
2018-May-18 03:58N 34°35' E 135°26'3 6.6
2018-May-18 03:29N 34°36' E 135°22'4 8.1
2018-May-18 03:00N 34°35' E 135°18'0 0.0
2018-May-18 02:19N 34°35' E 135°18'0 0.1
2018-May-18 01:49N 34°35' E 135°18'0 0.0
2018-May-18 01:01N 34°35' E 135°18'0 0.0
2018-May-18 00:49N 34°35' E 135°18'0 0.0
2018-May-18 00:10N 34°35' E 135°18'0 0.0
2018-May-17 23:55N 34°35' E 135°18'0 0.0
2018-May-17 23:25N 34°35' E 135°18'0 0.0
2018-May-17 22:55N 34°35' E 135°18'0 0.0
2018-May-17 22:19N 34°35' E 135°18'0 0.0
2018-May-17 21:37N 34°35' E 135°18'0 0.0
2018-May-17 21:01N 34°35' E 135°18'0 0.5
2018-May-17 20:55N 34°35' E 135°18'0 0.1
2018-May-17 20:22N 34°35' E 135°18'0 0.0
2018-May-17 19:49N 34°35' E 135°18'0 0.1
2018-May-17 19:25N 34°35' E 135°18'0 0.0
2018-May-17 18:43N 34°35' E 135°18'0 0.0
2018-May-17 18:25N 34°35' E 135°18'0 0.1
2018-May-17 17:55N 34°35' E 135°18'0 0.0
2018-May-17 17:19N 34°35' E 135°18'0 0.1
2018-May-17 16:55N 34°35' E 135°18'0 0.0
2018-May-17 16:25N 34°35' E 135°18'0 0.0
2018-May-17 15:55N 34°35' E 135°18'0 0.0
2018-May-17 15:19N 34°35' E 135°18'0 0.1
2018-May-17 15:00N 34°35' E 135°18'612.3
2018-May-17 14:30N 34°30' E 135°13'815.7
2018-May-17 14:00N 34°24' E 135°07'815.4
2018-May-17 13:30N 34°18' E 135°00'815.8
2018-May-17 13:00N 34°11' E 135°00'815.6
2018-May-17 12:30N 34°03' E 135°00'816.6
2018-May-17 12:00N 33°55' E 135°00'815.3
2018-May-17 11:30N 33°47' E 135°04'22612.8
2018-May-16 17:49N 34°55' E 139°25'410.8
2018-May-16 17:29N 34°57' E 139°28'612.5
2018-May-16 17:00N 35°01' E 139°33'714.2
2018-May-16 16:30N 35°06' E 139°40'714.0
2018-May-16 16:00N 35°11' E 139°45'612.0
2018-May-16 15:30N 35°17' E 139°45'612.9
2018-May-16 15:00N 35°23' E 139°42'714.3
2018-May-16 14:30N 35°28' E 139°49'714.1
2018-May-16 13:59N 35°31' E 139°57'5 1.7
2018-May-16 10:51N 35°32' E 140°03'0 0.0
2018-May-16 10:25N 35°32' E 140°03'0 0.0
2018-May-16 09:58N 35°32' E 140°03'0 0.0
2018-May-16 09:25N 35°32' E 140°03'1 0.2
2018-May-16 07:05N 35°32' E 140°03'1 6.1
2018-May-16 06:51N 35°32' E 140°01'3 8.3
2018-May-16 06:30N 35°31' E 139°58'2 4.5
2018-May-16 05:59N 35°30' E 139°55'0 0.0
2018-May-16 04:53N 35°30' E 139°55'0 0.1
2018-May-16 03:53N 35°30' E 139°55'0 0.0
2018-May-16 03:29N 35°30' E 139°55'0 0.0
2018-May-15 20:35N 35°30' E 139°55'0 0.4
2018-May-15 20:19N 35°30' E 139°55'6 0.8
2018-May-15 12:14N 35°31' E 140°02'1 3.4
2018-May-15 12:00N 35°31' E 140°02'1 1.1
2018-May-15 11:27N 35°32' E 140°02'0 0.1
2018-May-15 11:00N 35°32' E 140°02'0 0.0
2018-May-15 10:30N 35°32' E 140°02'0 0.0
2018-May-15 10:00N 35°32' E 140°02'0 0.0
2018-May-15 09:30N 35°32' E 140°02'0 0.0
2018-May-15 09:00N 35°32' E 140°02'0 0.0
2018-May-15 08:27N 35°32' E 140°02'0 0.1
2018-May-15 08:00N 35°32' E 140°02'0 0.0
2018-May-15 07:30N 35°32' E 140°02'0 0.1
2018-May-15 07:00N 35°32' E 140°02'2 2.7
2018-May-15 06:25N 35°32' E 140°03'0 0.0
2018-May-15 05:55N 35°32' E 140°03'0 0.0
2018-May-15 05:25N 35°32' E 140°03'0 0.0
2018-May-15 04:55N 35°32' E 140°03'0 0.0
2018-May-15 04:28N 35°32' E 140°03'0 0.0
2018-May-15 03:43N 35°32' E 140°03'0 0.0
2018-May-15 03:25N 35°32' E 140°03'0 0.0
2018-May-15 02:55N 35°32' E 140°03'0 0.0
2018-May-15 02:25N 35°32' E 140°03'0 0.0
2018-May-15 01:58N 35°32' E 140°03'0 0.0
2018-May-15 01:25N 35°32' E 140°03'0 0.0
2018-May-15 00:55N 35°32' E 140°03'0 0.0
2018-May-15 00:19N 35°32' E 140°03'1 1.9
2018-May-15 00:00N 35°33' E 140°03'0 0.4
2018-May-14 23:28N 35°33' E 140°03'0 0.0
2018-May-14 22:58N 35°33' E 140°03'0 0.0
2018-May-14 22:28N 35°33' E 140°03'0 0.0
2018-May-14 21:58N 35°33' E 140°03'0 0.1
2018-May-14 21:28N 35°33' E 140°03'0 0.0
2018-May-14 20:58N 35°33' E 140°03'0 0.0
2018-May-14 20:28N 35°33' E 140°03'0 0.0
2018-May-14 19:58N 35°33' E 140°03'0 0.0
2018-May-14 19:28N 35°33' E 140°03'0 0.0
2018-May-14 18:58N 35°33' E 140°03'0 0.1
2018-May-14 18:28N 35°33' E 140°03'0 0.1
2018-May-14 17:58N 35°33' E 140°03'0 0.0
2018-May-14 17:28N 35°33' E 140°03'0 0.0
2018-May-14 16:58N 35°33' E 140°03'0 0.1
2018-May-14 16:28N 35°33' E 140°03'0 0.1
2018-May-14 15:58N 35°33' E 140°03'0 0.0
2018-May-14 15:28N 35°33' E 140°03'0 0.0
2018-May-14 14:58N 35°33' E 140°03'0 0.0
2018-May-14 14:28N 35°33' E 140°03'0 0.0
2018-May-14 13:58N 35°33' E 140°03'0 0.0
2018-May-14 13:28N 35°33' E 140°03'0 0.0
2018-May-14 12:58N 35°33' E 140°03'0 0.0
2018-May-14 12:28N 35°33' E 140°03'0 0.0
2018-May-14 11:55N 35°33' E 140°03'0 0.0
2018-May-14 11:28N 35°33' E 140°03'0 0.0
2018-May-14 10:58N 35°33' E 140°03'0 0.0
2018-May-14 10:28N 35°33' E 140°03'0 0.0
2018-May-14 09:58N 35°33' E 140°03'0 0.0
2018-May-14 09:28N 35°33' E 140°03'0 0.0
2018-May-14 08:58N 35°33' E 140°03'0 0.0
2018-May-14 08:28N 35°33' E 140°03'0 0.1
2018-May-14 07:58N 35°33' E 140°03'0 0.0
2018-May-14 07:30N 35°33' E 140°03'1 1.2
2018-May-14 07:00N 35°32' E 140°03'1 1.8
2018-May-14 06:31N 35°33' E 140°02'5 9.2
2018-May-14 06:01N 35°31' E 139°57'714.0
2018-May-14 05:30N 35°27' E 139°50'612.7
2018-May-14 05:01N 35°22' E 139°45'611.7
2018-May-14 04:31N 35°16' E 139°46'613.0
2018-May-14 04:00N 35°10' E 139°46'713.7
2018-May-14 03:30N 35°03' E 139°44'714.4
2018-May-14 03:00N 34°59' E 139°37'815.6
2018-May-14 02:30N 34°54' E 139°29'917.3
2018-May-14 02:01N 34°50' E 139°20'816.6
2018-May-14 01:30N 34°44' E 139°13'817.0
2018-May-14 01:00N 34°38' E 139°06'816.8
2018-May-14 00:30N 34°32' E 138°58'915.8
2018-May-13 23:58N 34°31' E 138°48'714.7
2018-May-13 23:28N 34°31' E 138°39'714.6
2018-May-13 23:00N 34°31' E 138°31'814.4
2018-May-13 22:29N 34°30' E 138°21'4713.7
2018-May-13 19:05N 34°31' E 137°25'113.1
2018-May-13 19:00N 34°31' E 137°24'713.8
2018-May-13 18:30N 34°31' E 137°15'813.4
2018-May-13 17:53N 34°32' E 137°05'512.2
2018-May-13 17:29N 34°34' E 136°60'613.2
2018-May-13 17:00N 34°38' E 136°54'713.5
2018-May-13 16:30N 34°43' E 136°48'714.0
2018-May-13 16:00N 34°49' E 136°45'714.1
2018-May-13 15:30N 34°55' E 136°41'3 6.3
2018-May-13 14:58N 34°58' E 136°39'0 0.0
2018-May-13 14:28N 34°58' E 136°39'0 0.0
2018-May-13 13:58N 34°58' E 136°39'0 0.0
2018-May-13 13:28N 34°58' E 136°39'0 0.0
2018-May-13 12:58N 34°58' E 136°39'0 0.0
2018-May-13 12:28N 34°58' E 136°39'0 0.0
2018-May-13 11:58N 34°58' E 136°39'0 0.0
2018-May-13 11:28N 34°58' E 136°39'0 0.0
2018-May-13 10:58N 34°58' E 136°39'0 0.0
2018-May-13 10:28N 34°58' E 136°39'0 0.0
2018-May-13 09:58N 34°58' E 136°39'0 0.0
2018-May-13 09:28N 34°58' E 136°39'0 0.0
2018-May-13 08:58N 34°58' E 136°39'0 0.0
2018-May-13 08:28N 34°58' E 136°39'  
Track history (hours):
 
Tides and Currents Weather Stations Pressure Air Temp Water Temp Dewpoint Dewpoint Depression Visibility Wind Speed Wind Dir Waves Ship Positions

Naniwa Maru No.7

Last reported at 2018-May-23 08:15 UTC. Time now 2018-May-25 14:26 UTC.
Position N 34°50' E 139°49'.

Length 105 m; draft 5.5 m.

Type: Tanker. MMSI: 431000301.

Date/timePositionNaut miles runAvg speedWind from/ knotsBaromVisibWave heightAir tempDewpointWater temp
2018-May-23 08:15N 34°50' E 139°49'415.5
2018-May-23 08:00N 34°53' E 139°46'815.5
2018-May-23 07:30N 35°00' E 139°43'815.2
2018-May-23 07:00N 35°08' E 139°45'714.4
2018-May-23 06:30N 35°15' E 139°46'612.8
2018-May-23 06:00N 35°20' E 139°42'5 8.5
2018-May-23 05:28N 35°24' E 139°40'0 0.0
2018-May-23 04:58N 35°24' E 139°40'0 0.0
2018-May-23 04:28N 35°24' E 139°40'0 0.0
2018-May-23 03:58N 35°24' E 139°40'0 0.0
2018-May-23 03:28N 35°24' E 139°40'0 0.0
2018-May-23 02:52N 35°24' E 139°40'0 0.0
2018-May-23 02:28N 35°24' E 139°40'0 0.0
2018-May-23 01:58N 35°24' E 139°40'0 0.0
2018-May-23 01:28N 35°24' E 139°40'0 0.0
2018-May-23 00:58N 35°24' E 139°40'1 2.0
2018-May-23 00:30N 35°24' E 139°40'4 7.4
2018-May-23 00:01N 35°24' E 139°45'0 0.3
2018-May-22 23:28N 35°24' E 139°45'0 0.0
2018-May-22 22:59N 35°24' E 139°45'0 0.0
2018-May-22 22:25N 35°24' E 139°45'0 0.0
2018-May-22 21:55N 35°24' E 139°45'0 0.1
2018-May-22 21:28N 35°24' E 139°45'0 0.0
2018-May-22 20:59N 35°24' E 139°45'0 0.0
2018-May-22 20:28N 35°24' E 139°45'0 0.0
2018-May-22 19:58N 35°24' E 139°45'0 0.0
2018-May-22 19:29N 35°24' E 139°45'0 0.0
2018-May-22 18:58N 35°24' E 139°45'0 0.0
2018-May-22 18:29N 35°24' E 139°45'0 0.0
2018-May-22 17:59N 35°24' E 139°45'0 0.0
2018-May-22 17:28N 35°24' E 139°45'0 0.0
2018-May-22 16:59N 35°24' E 139°45'0 0.0
2018-May-22 16:28N 35°24' E 139°45'0 0.0
2018-May-22 15:58N 35°24' E 139°45'0 0.1
2018-May-22 15:25N 35°24' E 139°45'0 0.0
2018-May-22 14:58N 35°24' E 139°45'0 0.1
2018-May-22 14:28N 35°24' E 139°45'0 0.0
2018-May-22 13:58N 35°24' E 139°45'0 0.0
2018-May-22 13:28N 35°24' E 139°45'0 0.0
2018-May-22 12:58N 35°24' E 139°45'0 0.0
2018-May-22 12:29N 35°24' E 139°45'0 0.0
2018-May-22 11:58N 35°24' E 139°45'0 0.0
2018-May-22 11:28N 35°24' E 139°45'0 0.0
2018-May-22 10:52N 35°24' E 139°45'0 0.0
2018-May-22 10:28N 35°24' E 139°45'0 0.0
2018-May-22 09:58N 35°24' E 139°45'0 0.0
2018-May-22 09:28N 35°24' E 139°45'0 0.4
2018-May-22 09:00N 35°24' E 139°45'714.1
2018-May-22 08:30N 35°29' E 139°51'713.7
2018-May-22 08:00N 35°32' E 139°59'3 0.4
2018-May-21 23:50N 35°32' E 140°03'2 7.4
2018-May-21 23:30N 35°32' E 140°00'5 9.7
2018-May-21 23:00N 35°30' E 139°55'0 0.0
2018-May-21 19:13N 35°30' E 139°55'0 0.0
2018-May-21 18:52N 35°30' E 139°55'0 0.1
2018-May-21 18:13N 35°30' E 139°55'0 0.0
2018-May-21 17:55N 35°30' E 139°55'0 0.0
2018-May-21 16:28N 35°30' E 139°55'0 0.0
2018-May-21 15:58N 35°30' E 139°55'0 0.1
2018-May-21 15:28N 35°30' E 139°55'0 0.0
2018-May-21 14:58N 35°30' E 139°55'0 0.0
2018-May-21 14:28N 35°30' E 139°55'0 0.5
2018-May-21 14:00N 35°30' E 139°55'713.1
2018-May-21 13:31N 35°26' E 139°48'612.5
2018-May-21 13:00N 35°20' E 139°45'611.6
2018-May-21 12:30N 35°15' E 139°47'713.3
2018-May-21 12:00N 35°08' E 139°45'713.5
2018-May-21 11:30N 35°02' E 139°41'815.5
2018-May-21 11:00N 34°57' E 139°34'23312.2
2018-May-20 15:51N 33°48' E 135°04'513.7
2018-May-20 15:31N 33°51' E 135°00'713.1
2018-May-20 15:01N 33°57' E 134°58'713.4
2018-May-20 14:30N 34°04' E 134°58'713.6
2018-May-20 14:00N 34°11' E 134°58'612.6
2018-May-20 13:30N 34°17' E 134°58'612.3
2018-May-20 13:00N 34°23' E 135°01'713.1
2018-May-20 12:30N 34°27' E 135°07'713.9
2018-May-20 12:00N 34°32' E 135°14'713.4
2018-May-20 11:30N 34°36' E 135°20'4 8.8
2018-May-20 11:00N 34°35' E 135°26'0 0.1
2018-May-20 10:29N 34°35' E 135°26'0 0.0
2018-May-20 10:00N 34°35' E 135°26'0 0.0
2018-May-20 09:30N 34°35' E 135°26'0 0.0
2018-May-20 09:00N 34°35' E 135°26'0 0.0
2018-May-20 08:30N 34°35' E 135°26'0 0.0
2018-May-20 07:57N 34°35' E 135°26'0 0.0
2018-May-20 07:09N 34°35' E 135°26'0 0.0
2018-May-20 06:51N 34°35' E 135°26'0 0.0
2018-May-20 06:27N 34°35' E 135°26'0 0.0
2018-May-20 05:03N 34°35' E 135°26'0 0.0
2018-May-20 04:57N 34°35' E 135°26'0 0.0
2018-May-20 04:27N 34°35' E 135°26'0 0.2
2018-May-20 03:39N 34°35' E 135°26'0 2.0
2018-May-20 03:29N 34°35' E 135°25'4 7.5
2018-May-20 03:00N 34°36' E 135°21'3 5.2
2018-May-20 02:28N 34°35' E 135°18'0 0.0
2018-May-20 01:58N 34°35' E 135°18'0 0.0
2018-May-20 01:16N 34°35' E 135°18'0 0.2
2018-May-20 00:58N 34°35' E 135°18'0 0.0
2018-May-20 00:31N 34°35' E 135°18'0 0.0
2018-May-19 23:55N 34°35' E 135°18'0 0.0
2018-May-19 23:27N 34°35' E 135°18'0 0.0
2018-May-19 23:01N 34°35' E 135°18'0 0.0
2018-May-19 22:31N 34°35' E 135°18'0 0.1
2018-May-19 22:00N 34°35' E 135°18'0 0.0
2018-May-19 21:28N 34°35' E 135°18'0 0.0
2018-May-19 20:58N 34°35' E 135°18'0 0.0
2018-May-19 20:30N 34°35' E 135°18'0 0.0
2018-May-19 19:55N 34°35' E 135°18'0 0.0
2018-May-19 19:25N 34°35' E 135°18'0 0.0
2018-May-19 19:01N 34°35' E 135°18'0 0.0
2018-May-19 18:28N 34°35' E 135°18'0 0.0
2018-May-19 18:01N 34°35' E 135°18'0 0.0
2018-May-19 17:25N 34°35' E 135°18'0 0.0
2018-May-19 16:55N 34°35' E 135°18'2 5.0
2018-May-19 16:30N 34°35' E 135°15'714.3
2018-May-19 16:00N 34°35' E 135°07'612.0
2018-May-19 15:31N 34°37' E 135°00'713.4
2018-May-19 15:00N 34°34' E 134°53'612.4
2018-May-19 14:30N 34°32' E 134°45'713.5
2018-May-19 14:00N 34°29' E 134°38'714.3
2018-May-19 13:31N 34°27' E 134°30'714.5
2018-May-19 13:00N 34°24' E 134°22'6 0.3
2018-May-18 17:35N 34°24' E 134°14'112.7
2018-May-18 17:28N 34°24' E 134°16'613.4
2018-May-18 16:59N 34°26' E 134°24'713.6
2018-May-18 16:30N 34°28' E 134°31'714.2
2018-May-18 16:00N 34°31' E 134°39'815.4
2018-May-18 15:31N 34°34' E 134°48'816.7
2018-May-18 15:00N 34°37' E 134°57'815.3
2018-May-18 14:30N 34°36' E 135°06'714.0
2018-May-18 14:00N 34°36' E 135°15'714.0
2018-May-18 13:30N 34°36' E 135°23'3 3.0
2018-May-18 12:35N 34°34' E 135°26'0 0.0
2018-May-18 12:27N 34°34' E 135°26'0 0.0
2018-May-18 12:00N 34°34' E 135°26'0 0.0
2018-May-18 11:29N 34°34' E 135°26'0 0.0
2018-May-18 10:59N 34°34' E 135°26'0 0.0
2018-May-18 10:27N 34°34' E 135°26'0 0.0
2018-May-18 09:58N 34°34' E 135°26'0 0.0
2018-May-18 03:58N 34°35' E 135°26'3 6.6
2018-May-18 03:29N 34°36' E 135°22'4 8.1
2018-May-18 03:00N 34°35' E 135°18'0 0.0
2018-May-18 02:19N 34°35' E 135°18'0 0.1
2018-May-18 01:49N 34°35' E 135°18'0 0.0
2018-May-18 01:01N 34°35' E 135°18'0 0.0
2018-May-18 00:49N 34°35' E 135°18'0 0.0
2018-May-18 00:10N 34°35' E 135°18'0 0.0
2018-May-17 23:55N 34°35' E 135°18'0 0.0
2018-May-17 23:25N 34°35' E 135°18'0 0.0
2018-May-17 22:55N 34°35' E 135°18'0 0.0
2018-May-17 22:19N 34°35' E 135°18'0 0.0
2018-May-17 21:37N 34°35' E 135°18'0 0.0
2018-May-17 21:01N 34°35' E 135°18'0 0.5
2018-May-17 20:55N 34°35' E 135°18'0 0.1
2018-May-17 20:22N 34°35' E 135°18'0 0.0
2018-May-17 19:49N 34°35' E 135°18'0 0.1
2018-May-17 19:25N 34°35' E 135°18'0 0.0
2018-May-17 18:43N 34°35' E 135°18'0 0.0
2018-May-17 18:25N 34°35' E 135°18'0 0.1
2018-May-17 17:55N 34°35' E 135°18'0 0.0
2018-May-17 17:19N 34°35' E 135°18'0 0.1
2018-May-17 16:55N 34°35' E 135°18'0 0.0
2018-May-17 16:25N 34°35' E 135°18'0 0.0
2018-May-17 15:55N 34°35' E 135°18'0 0.0
2018-May-17 15:19N 34°35' E 135°18'0 0.1
2018-May-17 15:00N 34°35' E 135°18'612.3
2018-May-17 14:30N 34°30' E 135°13'815.7
2018-May-17 14:00N 34°24' E 135°07'815.4
2018-May-17 13:30N 34°18' E 135°00'815.8
2018-May-17 13:00N 34°11' E 135°00'815.6
2018-May-17 12:30N 34°03' E 135°00'816.6
2018-May-17 12:00N 33°55' E 135°00'815.3
2018-May-17 11:30N 33°47' E 135°04'22612.8
2018-May-16 17:49N 34°55' E 139°25'410.8
2018-May-16 17:29N 34°57' E 139°28'612.5
2018-May-16 17:00N 35°01' E 139°33'714.2
2018-May-16 16:30N 35°06' E 139°40'714.0
2018-May-16 16:00N 35°11' E 139°45'612.0
2018-May-16 15:30N 35°17' E 139°45'612.9
2018-May-16 15:00N 35°23' E 139°42'714.3
2018-May-16 14:30N 35°28' E 139°49'714.1
2018-May-16 13:59N 35°31' E 139°57'5 1.7
2018-May-16 10:51N 35°32' E 140°03'0 0.0
2018-May-16 10:25N 35°32' E 140°03'0 0.0
2018-May-16 09:58N 35°32' E 140°03'0 0.0
2018-May-16 09:25N 35°32' E 140°03'1 0.2
2018-May-16 07:05N 35°32' E 140°03'1 6.1
2018-May-16 06:51N 35°32' E 140°01'3 8.3
2018-May-16 06:30N 35°31' E 139°58'2 4.5
2018-May-16 05:59N 35°30' E 139°55'0 0.0
2018-May-16 04:53N 35°30' E 139°55'0 0.1
2018-May-16 03:53N 35°30' E 139°55'0 0.0
2018-May-16 03:29N 35°30' E 139°55'0 0.0
2018-May-15 20:35N 35°30' E 139°55'0 0.4
2018-May-15 20:19N 35°30' E 139°55'6 0.8
2018-May-15 12:14N 35°31' E 140°02'1 3.4
2018-May-15 12:00N 35°31' E 140°02'1 1.1
2018-May-15 11:27N 35°32' E 140°02'0 0.1
2018-May-15 11:00N 35°32' E 140°02'0 0.0
2018-May-15 10:30N 35°32' E 140°02'0 0.0
2018-May-15 10:00N 35°32' E 140°02'0 0.0
2018-May-15 09:30N 35°32' E 140°02'0 0.0
2018-May-15 09:00N 35°32' E 140°02'0 0.0
2018-May-15 08:27N 35°32' E 140°02'0 0.1
2018-May-15 08:00N 35°32' E 140°02'0 0.0
2018-May-15 07:30N 35°32' E 140°02'0 0.1
2018-May-15 07:00N 35°32' E 140°02'2 2.7
2018-May-15 06:25N 35°32' E 140°03'0 0.0
2018-May-15 05:55N 35°32' E 140°03'0 0.0
2018-May-15 05:25N 35°32' E 140°03'0 0.0
2018-May-15 04:55N 35°32' E 140°03'0 0.0
2018-May-15 04:28N 35°32' E 140°03'0 0.0
2018-May-15 03:43N 35°32' E 140°03'0 0.0
2018-May-15 03:25N 35°32' E 140°03'0 0.0
2018-May-15 02:55N 35°32' E 140°03'0 0.0
2018-May-15 02:25N 35°32' E 140°03'0 0.0
2018-May-15 01:58N 35°32' E 140°03'0 0.0
2018-May-15 01:25N 35°32' E 140°03'0 0.0
2018-May-15 00:55N 35°32' E 140°03'0 0.0
2018-May-15 00:19N 35°32' E 140°03'1 1.9
2018-May-15 00:00N 35°33' E 140°03'0 0.4
2018-May-14 23:28N 35°33' E 140°03'0 0.0
2018-May-14 22:58N 35°33' E 140°03'0 0.0
2018-May-14 22:28N 35°33' E 140°03'0 0.0
2018-May-14 21:58N 35°33' E 140°03'0 0.1
2018-May-14 21:28N 35°33' E 140°03'0 0.0
2018-May-14 20:58N 35°33' E 140°03'0 0.0
2018-May-14 20:28N 35°33' E 140°03'0 0.0
2018-May-14 19:58N 35°33' E 140°03'0 0.0
2018-May-14 19:28N 35°33' E 140°03'0 0.0
2018-May-14 18:58N 35°33' E 140°03'0 0.1
2018-May-14 18:28N 35°33' E 140°03'0 0.1
2018-May-14 17:58N 35°33' E 140°03'0 0.0
2018-May-14 17:28N 35°33' E 140°03'0 0.0
2018-May-14 16:58N 35°33' E 140°03'0 0.1
2018-May-14 16:28N 35°33' E 140°03'0 0.1
2018-May-14 15:58N 35°33' E 140°03'0 0.0
2018-May-14 15:28N 35°33' E 140°03'0 0.0
2018-May-14 14:58N 35°33' E 140°03'0 0.0
2018-May-14 14:28N 35°33' E 140°03'0 0.0
2018-May-14 13:58N 35°33' E 140°03'0 0.0
2018-May-14 13:28N 35°33' E 140°03'0 0.0
2018-May-14 12:58N 35°33' E 140°03'0 0.0
2018-May-14 12:28N 35°33' E 140°03'0 0.0
2018-May-14 11:55N 35°33' E 140°03'0 0.0
2018-May-14 11:28N 35°33' E 140°03'0 0.0
2018-May-14 10:58N 35°33' E 140°03'0 0.0
2018-May-14 10:28N 35°33' E 140°03'0 0.0
2018-May-14 09:58N 35°33' E 140°03'0 0.0
2018-May-14 09:28N 35°33' E 140°03'0 0.0
2018-May-14 08:58N 35°33' E 140°03'0 0.0
2018-May-14 08:28N 35°33' E 140°03'0 0.1
2018-May-14 07:58N 35°33' E 140°03'0 0.0
2018-May-14 07:30N 35°33' E 140°03'1 1.2
2018-May-14 07:00N 35°32' E 140°03'1 1.8
2018-May-14 06:31N 35°33' E 140°02'5 9.2
2018-May-14 06:01N 35°31' E 139°57'714.0
2018-May-14 05:30N 35°27' E 139°50'612.7
2018-May-14 05:01N 35°22' E 139°45'611.7
2018-May-14 04:31N 35°16' E 139°46'613.0
2018-May-14 04:00N 35°10' E 139°46'713.7
2018-May-14 03:30N 35°03' E 139°44'714.4
2018-May-14 03:00N 34°59' E 139°37'815.6
2018-May-14 02:30N 34°54' E 139°29'917.3
2018-May-14 02:01N 34°50' E 139°20'816.6
2018-May-14 01:30N 34°44' E 139°13'817.0
2018-May-14 01:00N 34°38' E 139°06'816.8
2018-May-14 00:30N 34°32' E 138°58'915.8
2018-May-13 23:58N 34°31' E 138°48'714.7
2018-May-13 23:28N 34°31' E 138°39'714.6
2018-May-13 23:00N 34°31' E 138°31'814.4
2018-May-13 22:29N 34°30' E 138°21'4713.7
2018-May-13 19:05N 34°31' E 137°25'113.1
2018-May-13 19:00N 34°31' E 137°24'713.8
2018-May-13 18:30N 34°31' E 137°15'813.4
2018-May-13 17:53N 34°32' E 137°05'512.2
2018-May-13 17:29N 34°34' E 136°60'613.2
2018-May-13 17:00N 34°38' E 136°54'713.5
2018-May-13 16:30N 34°43' E 136°48'714.0
2018-May-13 16:00N 34°49' E 136°45'714.1
2018-May-13 15:30N 34°55' E 136°41'3 6.3
2018-May-13 14:58N 34°58' E 136°39'0 0.0
2018-May-13 14:28N 34°58' E 136°39'0 0.0
2018-May-13 13:58N 34°58' E 136°39'0 0.0
2018-May-13 13:28N 34°58' E 136°39'0 0.0
2018-May-13 12:58N 34°58' E 136°39'0 0.0
2018-May-13 12:28N 34°58' E 136°39'0 0.0
2018-May-13 11:58N 34°58' E 136°39'0 0.0
2018-May-13 11:28N 34°58' E 136°39'0 0.0
2018-May-13 10:58N 34°58' E 136°39'0 0.0
2018-May-13 10:28N 34°58' E 136°39'0 0.0
2018-May-13 09:58N 34°58' E 136°39'0 0.0
2018-May-13 09:28N 34°58' E 136°39'0 0.0
2018-May-13 08:58N 34°58' E 136°39'0 0.0
2018-May-13 08:28N 34°58' E 136°39'  

Dump ship's entire track history